createdAt,value
2022-10-16T00:01:46.502Z,17.32
2022-10-16T00:04:15.320Z,17.48
2022-10-16T00:06:46.528Z,17.58
2022-10-16T00:09:14.658Z,17.63
2022-10-16T00:11:42.627Z,17.69
2022-10-16T00:14:14.879Z,17.74
2022-10-16T00:16:43.923Z,17.82
2022-10-16T00:19:13.537Z,17.94
2022-10-16T00:21:41.928Z,17.90
2022-10-16T00:24:11.307Z,17.90
2022-10-16T00:26:40.588Z,17.99
2022-10-16T00:29:09.096Z,18.05
2022-10-16T00:31:37.271Z,18.12
2022-10-16T00:34:05.557Z,18.13
2022-10-16T00:36:33.479Z,18.08
2022-10-16T00:39:02.935Z,18.03
2022-10-16T00:41:31.833Z,18.06
2022-10-16T00:44:02.167Z,18.10
2022-10-16T00:46:36.865Z,18.00
2022-10-16T00:49:11.886Z,17.90
2022-10-16T00:51:43.505Z,17.91
2022-10-16T00:54:22.545Z,17.91
2022-10-16T00:56:51.477Z,17.93
2022-10-16T00:59:34.094Z,17.89
2022-10-16T01:02:04.338Z,18.02
2022-10-16T01:04:37.846Z,18.13
2022-10-16T01:07:41.298Z,18.23
2022-10-16T01:10:24.438Z,18.33
2022-10-16T01:12:58.178Z,18.47
2022-10-16T01:18:32.288Z,18.46
2022-10-16T01:21:03.937Z,18.51
2022-10-16T01:23:53.957Z,18.44
2022-10-16T01:26:28.185Z,18.37
2022-10-16T01:29:03.251Z,18.37
2022-10-16T01:31:35.852Z,18.34
2022-10-16T01:34:09.741Z,18.36
2022-10-16T01:36:49.162Z,18.27
2022-10-16T01:39:21.965Z,18.21
2022-10-16T01:42:02.354Z,18.23
2022-10-16T01:44:33.728Z,18.23
2022-10-16T01:47:02.151Z,18.32
2022-10-16T01:49:35.061Z,18.33
2022-10-16T01:52:07.518Z,18.39
2022-10-16T01:54:39.340Z,18.49
2022-10-16T01:57:09.219Z,18.52
2022-10-16T01:59:44.596Z,18.54
2022-10-16T02:02:14.579Z,18.54
2022-10-16T02:04:51.393Z,18.54
2022-10-16T02:07:19.241Z,18.55
2022-10-16T02:09:47.481Z,18.60
2022-10-16T02:12:25.509Z,18.64
2022-10-16T02:14:54.620Z,18.58
2022-10-16T02:17:23.000Z,18.46
2022-10-16T02:19:53.549Z,18.44
2022-10-16T02:22:29.490Z,18.53
2022-10-16T02:25:07.432Z,18.67
2022-10-16T02:27:52.750Z,18.72
2022-10-16T02:30:28.787Z,18.76
2022-10-16T02:32:59.697Z,18.80
2022-10-16T02:35:28.862Z,18.81
2022-10-16T02:37:58.051Z,18.82
2022-10-16T02:40:27.587Z,18.78
2022-10-16T02:42:56.386Z,18.72
2022-10-16T02:45:24.984Z,18.79
2022-10-16T02:47:53.045Z,18.91
2022-10-16T02:50:21.102Z,18.94
2022-10-16T02:52:49.620Z,18.88
2022-10-16T02:55:18.081Z,18.88
2022-10-16T02:57:46.164Z,18.96
2022-10-16T03:00:16.324Z,18.77
2022-10-16T03:02:44.970Z,18.69
2022-10-16T03:05:13.148Z,18.68
2022-10-16T03:07:40.996Z,18.54
2022-10-16T03:10:09.258Z,18.56
2022-10-16T03:12:37.361Z,18.68
2022-10-16T03:15:05.613Z,18.81
2022-10-16T03:17:34.187Z,18.78
2022-10-16T03:20:02.110Z,18.79
2022-10-16T03:22:30.152Z,18.72
2022-10-16T03:24:58.163Z,18.78
2022-10-16T03:27:26.690Z,18.76
2022-10-16T03:29:54.855Z,18.57
2022-10-16T03:32:22.990Z,18.57
2022-10-16T03:34:50.886Z,18.61
2022-10-16T03:37:18.915Z,18.74
2022-10-16T03:39:47.164Z,18.82
2022-10-16T03:42:15.054Z,18.84
2022-10-16T03:44:43.250Z,18.72
2022-10-16T03:47:11.376Z,18.61
2022-10-16T03:49:39.563Z,18.69
2022-10-16T03:52:07.850Z,18.69
2022-10-16T03:54:35.720Z,18.64
2022-10-16T03:57:03.626Z,18.73
2022-10-16T03:59:31.668Z,18.68
2022-10-16T04:01:59.743Z,18.74
2022-10-16T04:04:27.775Z,18.96
2022-10-16T04:06:55.647Z,18.99
2022-10-16T04:09:23.603Z,19.02
2022-10-16T04:11:52.151Z,19.06
2022-10-16T04:14:20.180Z,19.17
2022-10-16T04:16:48.212Z,19.20
2022-10-16T04:19:16.174Z,19.29
2022-10-16T04:21:44.077Z,19.36
2022-10-16T04:24:12.835Z,19.20
2022-10-16T04:26:41.337Z,19.05
2022-10-16T04:29:09.137Z,18.89
2022-10-16T04:31:36.998Z,18.89
2022-10-16T04:34:04.939Z,18.89
2022-10-16T04:36:32.950Z,18.89
2022-10-16T04:39:00.958Z,18.89
2022-10-16T04:41:34.264Z,18.80
2022-10-16T04:44:04.440Z,18.70
2022-10-16T04:46:34.204Z,18.58
2022-10-16T04:49:05.187Z,18.61
2022-10-16T04:51:33.613Z,18.56
2022-10-16T04:54:01.986Z,18.58
2022-10-16T04:56:35.616Z,18.45
2022-10-16T04:59:07.622Z,18.50
2022-10-16T05:01:36.721Z,18.45
2022-10-16T05:04:05.526Z,18.46
2022-10-16T05:06:33.795Z,18.55
2022-10-16T05:09:01.933Z,18.62
2022-10-16T05:11:30.540Z,18.67
2022-10-16T05:14:00.624Z,18.49
2022-10-16T05:16:29.437Z,18.47
2022-10-16T05:19:22.546Z,18.60
2022-10-16T05:21:46.543Z,18.55
2022-10-16T05:24:15.370Z,18.63
2022-10-16T05:26:44.139Z,18.71
2022-10-16T05:29:12.102Z,18.81
2022-10-16T05:31:40.323Z,18.85
2022-10-16T05:34:08.963Z,18.98
2022-10-16T05:36:38.816Z,19.10
2022-10-16T05:39:07.858Z,19.04
2022-10-16T05:41:35.930Z,19.01
2022-10-16T05:44:07.710Z,19.02
2022-10-16T05:46:35.803Z,19.27
2022-10-16T05:49:04.419Z,19.34
2022-10-16T05:51:32.973Z,19.39
2022-10-16T05:54:00.969Z,19.43
2022-10-16T05:56:29.312Z,19.48
2022-10-16T05:58:57.914Z,19.55
2022-10-16T06:01:26.607Z,19.63
2022-10-16T06:03:55.633Z,19.57
2022-10-16T06:06:27.068Z,19.69
2022-10-16T06:08:57.964Z,19.65
2022-10-16T06:11:29.844Z,19.63
2022-10-16T06:14:03.192Z,19.58
2022-10-16T06:16:31.402Z,19.68
2022-10-16T06:19:01.087Z,19.69
2022-10-16T06:21:31.154Z,19.70
2022-10-16T06:24:00.371Z,19.56
2022-10-16T06:26:32.350Z,19.49
2022-10-16T06:29:01.476Z,19.58
2022-10-16T06:31:31.926Z,19.43
2022-10-16T06:34:01.155Z,19.58
2022-10-16T06:36:29.897Z,19.46
2022-10-16T06:38:58.548Z,19.37
2022-10-16T06:41:27.301Z,19.32
2022-10-16T06:43:55.382Z,19.32
2022-10-16T06:46:25.818Z,19.22
2022-10-16T06:48:54.985Z,19.29
2022-10-16T06:51:52.650Z,19.46
2022-10-16T06:54:20.720Z,19.51
2022-10-16T06:56:49.086Z,19.34
2022-10-16T06:59:17.655Z,19.17
2022-10-16T07:01:46.127Z,19.31
2022-10-16T07:04:14.995Z,19.28
2022-10-16T07:06:43.702Z,19.50
2022-10-16T07:09:15.205Z,19.60
2022-10-16T07:11:44.738Z,19.42
2022-10-16T07:14:20.912Z,19.39
2022-10-16T07:16:49.666Z,19.43
2022-10-16T07:19:19.072Z,19.57
2022-10-16T07:21:47.158Z,19.62
2022-10-16T07:24:17.244Z,19.89
2022-10-16T07:26:47.292Z,19.70
2022-10-16T07:29:21.591Z,19.78
2022-10-16T07:31:50.850Z,19.96
2022-10-16T07:34:23.444Z,19.97
2022-10-16T07:36:55.743Z,19.82
2022-10-16T07:39:24.194Z,19.91
2022-10-16T07:41:52.687Z,19.89
2022-10-16T07:44:22.606Z,19.73
2022-10-16T07:46:51.350Z,19.85
2022-10-16T07:49:21.061Z,19.81
2022-10-16T07:51:49.664Z,20.09
2022-10-16T07:54:18.748Z,20.13
2022-10-16T07:56:47.775Z,19.94
2022-10-16T07:59:16.356Z,19.95
2022-10-16T08:01:44.875Z,19.83
2022-10-16T08:04:13.097Z,19.89
2022-10-16T08:06:42.050Z,19.96
2022-10-16T08:09:10.522Z,20.15
2022-10-16T08:11:38.983Z,20.49
2022-10-16T08:14:07.585Z,20.62
2022-10-16T08:16:36.133Z,20.94
2022-10-16T08:19:05.266Z,20.86
2022-10-16T08:21:33.683Z,20.80
2022-10-16T08:24:02.923Z,20.97
2022-10-16T08:26:33.180Z,20.99
2022-10-16T08:29:02.236Z,21.11
2022-10-16T08:31:32.246Z,21.23
2022-10-16T08:34:01.909Z,21.26
2022-10-16T08:36:30.158Z,21.60
2022-10-16T08:38:59.904Z,21.59
2022-10-16T08:41:48.329Z,21.55
2022-10-16T08:44:23.709Z,21.47
2022-10-16T08:47:11.593Z,21.64
2022-10-16T08:49:44.397Z,21.88
2022-10-16T08:52:15.538Z,21.95
2022-10-16T08:54:51.799Z,21.91
2022-10-16T08:57:27.684Z,22.12
2022-10-16T09:00:02.067Z,21.85
2022-10-16T09:02:42.373Z,21.70
2022-10-16T09:06:01.264Z,21.60
2022-10-16T09:08:57.639Z,21.61
2022-10-16T09:11:55.713Z,21.73
2022-10-16T09:14:40.776Z,21.91
2022-10-16T09:17:30.196Z,21.97
2022-10-16T09:20:21.279Z,22.22
2022-10-16T09:22:50.200Z,22.49
2022-10-16T09:25:23.195Z,22.46
2022-10-16T09:27:55.720Z,22.64
2022-10-16T09:30:30.326Z,22.84
2022-10-16T09:33:00.920Z,22.96
2022-10-16T09:35:47.360Z,23.19
2022-10-16T09:38:37.236Z,23.56
2022-10-16T09:41:19.257Z,24.01
2022-10-16T09:43:58.471Z,24.22
2022-10-16T09:46:39.217Z,24.31
2022-10-16T09:49:27.060Z,24.63
2022-10-16T09:52:26.412Z,24.87
2022-10-16T09:54:57.732Z,24.93
2022-10-16T09:57:27.435Z,24.86
2022-10-16T10:00:00.580Z,25.17
2022-10-16T10:02:48.314Z,25.07
2022-10-16T10:05:26.590Z,24.97
2022-10-16T10:08:01.489Z,25.22
2022-10-16T10:10:33.200Z,25.60
2022-10-16T10:13:03.065Z,25.74
2022-10-16T10:15:38.367Z,25.88
2022-10-16T10:18:24.336Z,25.87
2022-10-16T10:23:38.984Z,25.81
2022-10-16T10:26:21.944Z,25.74
2022-10-16T10:29:22.644Z,25.52
2022-10-16T10:32:07.406Z,25.41
2022-10-16T10:34:35.801Z,25.41
2022-10-16T10:37:39.691Z,25.50
2022-10-16T10:40:31.617Z,25.60
2022-10-16T10:46:18.990Z,25.45
2022-10-16T10:48:54.436Z,25.34
2022-10-16T10:51:55.247Z,25.08
2022-10-16T10:54:36.002Z,24.95
2022-10-16T10:57:29.145Z,25.02
2022-10-16T11:00:01.939Z,25.06
2022-10-16T11:02:46.170Z,25.14
2022-10-16T11:05:41.506Z,25.01
2022-10-16T11:08:19.922Z,25.45
2022-10-16T11:10:49.255Z,25.62
2022-10-16T11:13:45.478Z,25.72
2022-10-16T11:16:30.022Z,25.68
2022-10-16T11:19:07.195Z,25.52
2022-10-16T11:21:44.826Z,25.42
2022-10-16T11:24:44.435Z,25.65
2022-10-16T11:27:21.150Z,25.43
2022-10-16T11:30:03.665Z,25.75
2022-10-16T11:32:46.406Z,25.76
2022-10-16T11:35:39.454Z,25.72
2022-10-16T11:38:29.917Z,26.25
2022-10-16T11:41:05.119Z,26.37
2022-10-16T11:43:45.213Z,26.09
2022-10-16T11:46:19.049Z,26.22
2022-10-16T11:48:51.800Z,26.40
2022-10-16T11:51:40.064Z,26.33
2022-10-16T11:54:47.093Z,26.37
2022-10-16T11:57:22.354Z,26.00
2022-10-16T12:00:25.706Z,25.86
2022-10-16T12:02:58.534Z,25.98
2022-10-16T12:05:36.947Z,25.74
2022-10-16T12:08:17.763Z,25.47
2022-10-16T12:10:48.314Z,25.55
2022-10-16T12:13:37.024Z,25.59
2022-10-16T12:16:07.865Z,25.50
2022-10-16T12:18:43.467Z,25.40
2022-10-16T12:21:16.608Z,25.50
2022-10-16T12:23:54.364Z,25.52
2022-10-16T12:26:27.762Z,25.84
2022-10-16T12:28:57.431Z,26.08
2022-10-16T12:31:49.801Z,26.34
2022-10-16T12:34:44.301Z,26.41
2022-10-16T12:37:26.823Z,26.60
2022-10-16T12:39:58.221Z,27.12
2022-10-16T12:42:31.161Z,27.22
2022-10-16T12:45:00.801Z,27.30
2022-10-16T12:47:33.130Z,27.14
2022-10-16T12:50:05.362Z,27.12
2022-10-16T12:52:35.654Z,26.91
2022-10-16T12:55:06.793Z,26.84
2022-10-16T12:57:54.327Z,26.77
2022-10-16T13:00:29.949Z,26.33
2022-10-16T13:03:55.493Z,26.26
2022-10-16T13:06:39.911Z,26.27
2022-10-16T13:09:23.231Z,26.35
2022-10-16T13:12:28.803Z,26.81
2022-10-16T13:15:03.560Z,27.15
2022-10-16T13:17:55.044Z,26.91
2022-10-16T13:20:36.300Z,26.89
2022-10-16T13:23:16.446Z,26.98
2022-10-16T13:25:53.118Z,26.90
2022-10-16T13:28:28.287Z,26.92
2022-10-16T13:31:00.299Z,27.00
2022-10-16T13:33:43.310Z,27.35
2022-10-16T13:36:25.586Z,27.02
2022-10-16T13:39:12.940Z,27.01
2022-10-16T13:41:42.850Z,27.13
2022-10-16T13:44:21.045Z,27.09
2022-10-16T13:47:02.688Z,26.84
2022-10-16T13:49:32.700Z,26.51
2022-10-16T13:52:01.657Z,26.47
2022-10-16T13:54:34.173Z,26.40
2022-10-16T13:57:15.628Z,26.37
2022-10-16T13:59:54.750Z,26.01
2022-10-16T14:02:36.270Z,26.17
2022-10-16T14:05:10.512Z,26.37
2022-10-16T14:07:40.476Z,26.39
2022-10-16T14:10:46.611Z,26.09
2022-10-16T14:13:20.981Z,26.16
2022-10-16T14:15:54.149Z,25.93
2022-10-16T14:18:33.365Z,25.94
2022-10-16T14:21:08.543Z,25.96
2022-10-16T14:23:39.753Z,25.91
2022-10-16T14:26:08.436Z,25.70
2022-10-16T14:28:39.618Z,25.53
2022-10-16T14:31:21.036Z,25.61
2022-10-16T14:33:49.183Z,25.74
2022-10-16T14:36:19.751Z,25.75
2022-10-16T14:39:05.022Z,25.67
2022-10-16T14:41:43.909Z,25.74
2022-10-16T14:44:14.422Z,25.81
2022-10-16T14:46:49.623Z,26.03
2022-10-16T14:49:23.279Z,26.21
2022-10-16T14:51:53.172Z,26.18
2022-10-16T14:54:21.520Z,25.93
2022-10-16T14:56:53.391Z,25.88
2022-10-16T14:59:34.004Z,25.77
2022-10-16T15:02:27.824Z,25.58
2022-10-16T15:04:57.162Z,25.55
2022-10-16T15:07:31.234Z,25.56
2022-10-16T15:09:59.774Z,25.58
2022-10-16T15:12:29.093Z,25.56
2022-10-16T15:14:59.174Z,25.34
2022-10-16T15:17:29.379Z,25.33
2022-10-16T15:19:59.642Z,25.18
2022-10-16T15:22:29.484Z,25.21
2022-10-16T15:24:59.323Z,25.11
2022-10-16T15:27:27.748Z,24.98
2022-10-16T15:29:56.566Z,24.87
2022-10-16T15:32:24.824Z,24.74
2022-10-16T15:34:52.999Z,24.70
2022-10-16T15:37:21.306Z,24.63
2022-10-16T15:39:51.479Z,24.49
2022-10-16T15:42:20.116Z,24.28
2022-10-16T15:44:48.538Z,24.14
2022-10-16T15:47:17.099Z,24.08
2022-10-16T15:49:45.864Z,24.01
2022-10-16T15:52:14.541Z,23.99
2022-10-16T15:54:43.073Z,23.93
2022-10-16T15:57:11.753Z,23.79
2022-10-16T15:59:40.410Z,23.66
2022-10-16T16:02:12.470Z,23.56
2022-10-16T16:04:44.738Z,23.41
2022-10-16T16:07:13.397Z,23.30
2022-10-16T16:09:42.284Z,23.16
2022-10-16T16:12:13.446Z,23.02
2022-10-16T16:14:42.226Z,22.76
2022-10-16T16:17:10.653Z,22.64
2022-10-16T16:19:39.941Z,22.51
2022-10-16T16:22:10.932Z,22.28
2022-10-16T16:24:41.486Z,22.12
2022-10-16T16:27:10.143Z,21.66
2022-10-16T16:29:38.473Z,21.44
2022-10-16T16:32:12.018Z,21.26
2022-10-16T16:34:44.049Z,21.32
2022-10-16T16:37:12.841Z,21.35
2022-10-16T16:39:43.840Z,21.42
2022-10-16T16:42:12.902Z,21.43
2022-10-16T16:44:41.271Z,21.41
2022-10-16T16:47:10.731Z,21.33
2022-10-16T16:49:39.096Z,21.28
2022-10-16T16:52:08.594Z,21.26
2022-10-16T16:54:38.297Z,21.16
2022-10-16T16:57:06.765Z,21.05
2022-10-16T16:59:37.943Z,20.91
2022-10-16T17:02:07.158Z,20.85
2022-10-16T17:04:36.413Z,20.73
2022-10-16T17:07:07.381Z,20.34
2022-10-16T17:09:36.600Z,20.11
2022-10-16T17:12:05.138Z,19.96
2022-10-16T17:14:33.985Z,19.83
2022-10-16T17:17:02.316Z,19.80
2022-10-16T17:19:30.486Z,19.80
2022-10-16T17:21:58.539Z,19.77
2022-10-16T17:24:27.562Z,19.84
2022-10-16T17:26:56.026Z,19.97
2022-10-16T17:29:24.197Z,20.02
2022-10-16T17:31:52.366Z,19.92
2022-10-16T17:34:23.059Z,19.82
2022-10-16T17:36:51.423Z,19.78
2022-10-16T17:39:20.865Z,19.71
2022-10-16T17:41:50.079Z,19.67
2022-10-16T17:44:20.516Z,19.62
2022-10-16T17:46:55.665Z,19.61
2022-10-16T17:52:02.108Z,19.51
2022-10-16T17:54:30.386Z,19.35
2022-10-16T17:56:59.663Z,19.31
2022-10-16T17:59:35.905Z,19.29
2022-10-16T18:02:10.693Z,19.20
2022-10-16T18:04:40.381Z,19.06
2022-10-16T18:07:09.636Z,18.90
2022-10-16T18:09:49.641Z,18.83
2022-10-16T18:12:31.402Z,18.84
2022-10-16T18:15:08.119Z,18.69
2022-10-16T18:17:40.382Z,18.64
2022-10-16T18:20:10.982Z,18.59
2022-10-16T18:22:42.113Z,18.63
2022-10-16T18:25:11.144Z,18.60
2022-10-16T18:27:40.364Z,18.57
2022-10-16T18:30:09.226Z,18.51
2022-10-16T18:32:37.833Z,18.56
2022-10-16T18:35:06.982Z,18.58
2022-10-16T18:37:38.585Z,18.49
2022-10-16T18:40:10.973Z,18.44
2022-10-16T18:42:39.687Z,18.36
2022-10-16T18:45:08.755Z,18.23
2022-10-16T18:47:37.645Z,18.22
2022-10-16T18:50:11.723Z,18.19
2022-10-16T18:52:52.455Z,18.21
2022-10-16T18:55:21.793Z,18.17
2022-10-16T18:57:59.028Z,18.14
2022-10-16T19:00:29.709Z,18.04
2022-10-16T19:02:58.565Z,18.00
2022-10-16T19:05:26.950Z,17.99
2022-10-16T19:07:56.059Z,17.88
2022-10-16T19:10:24.161Z,17.68
2022-10-16T19:12:55.699Z,17.60
2022-10-16T19:15:24.529Z,17.50
2022-10-16T19:17:54.956Z,17.52
2022-10-16T19:20:27.678Z,17.54
2022-10-16T19:23:00.993Z,17.53
2022-10-16T19:25:31.507Z,17.56
2022-10-16T19:28:09.600Z,17.48
2022-10-16T19:30:40.797Z,17.38
2022-10-16T19:33:08.798Z,17.38
2022-10-16T19:35:40.526Z,17.40
2022-10-16T19:38:08.902Z,17.45
2022-10-16T19:40:37.461Z,17.46
2022-10-16T19:43:05.458Z,17.47
2022-10-16T19:45:33.872Z,17.47
2022-10-16T19:48:04.129Z,17.48
2022-10-16T19:50:34.302Z,17.48
2022-10-16T19:53:04.231Z,17.36
2022-10-16T19:55:32.474Z,17.27
2022-10-16T19:58:01.416Z,17.26
2022-10-16T20:00:29.773Z,17.23
2022-10-16T20:02:57.909Z,17.21
2022-10-16T20:05:26.315Z,17.15
2022-10-16T20:07:54.596Z,17.08
2022-10-16T20:10:26.330Z,17.00
2022-10-16T20:12:54.659Z,16.91
2022-10-16T20:15:22.794Z,16.89
2022-10-16T20:17:51.140Z,16.88
2022-10-16T20:20:20.226Z,16.80
2022-10-16T20:22:49.500Z,16.67
2022-10-16T20:25:19.135Z,16.70
2022-10-16T20:27:47.614Z,16.68
2022-10-16T20:30:16.044Z,16.58
2022-10-16T20:32:46.263Z,16.57
2022-10-16T20:35:14.518Z,16.54
2022-10-16T20:37:44.876Z,16.55
2022-10-16T20:40:13.822Z,16.51
2022-10-16T20:42:41.849Z,16.44
2022-10-16T20:45:10.433Z,16.48
2022-10-16T20:47:38.579Z,16.49
2022-10-16T20:50:07.008Z,16.48
2022-10-16T20:52:35.088Z,16.53
2022-10-16T20:55:04.453Z,16.54
2022-10-16T20:57:32.944Z,16.62
2022-10-16T21:00:02.262Z,16.59
2022-10-16T21:02:31.145Z,16.60
2022-10-16T21:04:59.483Z,16.64
2022-10-16T21:07:28.941Z,16.73
2022-10-16T21:09:58.161Z,16.81
2022-10-16T21:12:27.745Z,16.79
2022-10-16T21:15:13.961Z,16.60
2022-10-16T21:17:43.483Z,16.46
2022-10-16T21:20:11.626Z,16.38
2022-10-16T21:22:39.568Z,16.36
2022-10-16T21:25:08.832Z,16.21
2022-10-16T21:27:39.825Z,16.16
2022-10-16T21:30:10.120Z,16.12
2022-10-16T21:32:38.951Z,16.04
2022-10-16T21:35:07.389Z,15.77
2022-10-16T21:37:35.631Z,15.73
2022-10-16T21:40:04.156Z,15.86
2022-10-16T21:42:32.066Z,15.91
2022-10-16T21:45:00.171Z,16.05
2022-10-16T21:47:28.822Z,16.19
2022-10-16T21:49:57.351Z,16.22
2022-10-16T21:52:25.766Z,16.30
2022-10-16T21:54:54.328Z,16.32
2022-10-16T21:57:22.463Z,16.27
2022-10-16T21:59:50.935Z,16.32
2022-10-16T22:02:19.028Z,16.31
2022-10-16T22:04:46.868Z,16.05
2022-10-16T22:07:20.456Z,16.05
2022-10-16T22:09:48.680Z,15.93
2022-10-16T22:12:19.732Z,15.85
2022-10-16T22:14:48.255Z,15.67
2022-10-16T22:17:16.312Z,15.75
2022-10-16T22:19:44.709Z,15.86
2022-10-16T22:22:13.031Z,16.05
2022-10-16T22:24:41.567Z,16.31
2022-10-16T22:27:09.606Z,16.47
2022-10-16T22:29:37.519Z,16.53
2022-10-16T22:32:05.495Z,16.46
2022-10-16T22:34:33.754Z,16.31
2022-10-16T22:37:01.694Z,16.30
2022-10-16T22:39:29.713Z,16.49
2022-10-16T22:41:57.522Z,16.51
2022-10-16T22:44:25.777Z,16.47
2022-10-16T22:46:53.650Z,16.52
2022-10-16T22:49:21.911Z,16.59
2022-10-16T22:54:18.644Z,16.73
2022-10-16T22:56:46.418Z,16.83
2022-10-16T22:59:14.224Z,16.84
2022-10-16T23:01:42.519Z,16.79
2022-10-16T23:04:10.523Z,16.73
2022-10-16T23:06:38.327Z,16.88
2022-10-16T23:09:06.124Z,17.11
2022-10-16T23:11:33.987Z,17.24
2022-10-16T23:14:01.754Z,17.42
2022-10-16T23:16:29.751Z,17.59
2022-10-16T23:18:58.295Z,17.74
2022-10-16T23:21:27.296Z,17.82
2022-10-16T23:23:55.624Z,17.84
2022-10-16T23:26:25.808Z,17.85
2022-10-16T23:28:57.125Z,17.73
2022-10-16T23:31:26.594Z,17.68
2022-10-16T23:33:56.534Z,17.69
2022-10-16T23:36:25.202Z,17.64
2022-10-16T23:38:54.000Z,17.53
2022-10-16T23:41:22.276Z,17.21
2022-10-16T23:43:51.362Z,17.12
2022-10-16T23:46:19.584Z,17.14
2022-10-16T23:48:47.701Z,17.27
2022-10-16T23:51:15.610Z,17.20
2022-10-16T23:53:43.468Z,17.23
2022-10-16T23:56:11.821Z,17.16
2022-10-16T23:58:39.959Z,17.23
